sensor_id;sensor_type;location;lat;lon;timestamp;P1;durP1;ratioP1;P2;durP2;ratioP2
26965;SDS011;14522;52.068;4.414;2023-02-11T00:00:18;13.82;;;2.42;;
26965;SDS011;14522;52.068;4.414;2023-02-11T00:02:44;12.73;;;2.75;;
26965;SDS011;14522;52.068;4.414;2023-02-11T00:05:13;19.83;;;3.28;;
26965;SDS011;14522;52.068;4.414;2023-02-11T00:07:39;14.60;;;2.50;;
26965;SDS011;14522;52.068;4.414;2023-02-11T00:10:06;18.10;;;3.33;;
26965;SDS011;14522;52.068;4.414;2023-02-11T00:12:36;13.38;;;2.92;;
26965;SDS011;14522;52.068;4.414;2023-02-11T00:15:04;20.15;;;3.10;;
26965;SDS011;14522;52.068;4.414;2023-02-11T00:17:30;14.82;;;2.92;;
26965;SDS011;14522;52.068;4.414;2023-02-11T00:19:57;19.73;;;3.20;;
26965;SDS011;14522;52.068;4.414;2023-02-11T00:22:23;15.98;;;3.13;;
26965;SDS011;14522;52.068;4.414;2023-02-11T00:24:50;13.50;;;2.75;;
26965;SDS011;14522;52.068;4.414;2023-02-11T00:27:16;24.48;;;3.60;;
26965;SDS011;14522;52.068;4.414;2023-02-11T00:29:42;18.55;;;2.97;;
26965;SDS011;14522;52.068;4.414;2023-02-11T00:32:09;13.68;;;3.15;;
26965;SDS011;14522;52.068;4.414;2023-02-11T00:34:35;16.83;;;3.13;;
26965;SDS011;14522;52.068;4.414;2023-02-11T00:37:03;17.98;;;3.72;;
26965;SDS011;14522;52.068;4.414;2023-02-11T00:39:30;21.85;;;3.80;;
26965;SDS011;14522;52.068;4.414;2023-02-11T00:41:56;20.90;;;3.03;;
26965;SDS011;14522;52.068;4.414;2023-02-11T00:44:23;21.75;;;3.63;;
26965;SDS011;14522;52.068;4.414;2023-02-11T00:46:49;17.75;;;3.47;;
26965;SDS011;14522;52.068;4.414;2023-02-11T00:49:16;16.15;;;3.08;;
26965;SDS011;14522;52.068;4.414;2023-02-11T00:51:42;15.73;;;3.28;;
26965;SDS011;14522;52.068;4.414;2023-02-11T00:54:08;13.38;;;3.20;;
26965;SDS011;14522;52.068;4.414;2023-02-11T00:56:35;13.10;;;3.58;;
26965;SDS011;14522;52.068;4.414;2023-02-11T00:59:01;12.35;;;3.13;;
26965;SDS011;14522;52.068;4.414;2023-02-11T01:01:28;12.68;;;3.15;;
26965;SDS011;14522;52.068;4.414;2023-02-11T01:03:54;16.75;;;3.33;;
26965;SDS011;14522;52.068;4.414;2023-02-11T01:06:21;21.17;;;4.05;;
26965;SDS011;14522;52.068;4.414;2023-02-11T01:08:47;26.38;;;4.93;;
26965;SDS011;14522;52.068;4.414;2023-02-11T01:11:15;15.48;;;3.60;;
26965;SDS011;14522;52.068;4.414;2023-02-11T01:13:41;22.25;;;4.38;;
26965;SDS011;14522;52.068;4.414;2023-02-11T01:16:08;23.80;;;4.38;;
26965;SDS011;14522;52.068;4.414;2023-02-11T01:18:35;13.52;;;3.67;;
26965;SDS011;14522;52.068;4.414;2023-02-11T01:21:02;14.73;;;4.20;;
26965;SDS011;14522;52.068;4.414;2023-02-11T01:23:28;16.02;;;4.13;;
26965;SDS011;14522;52.068;4.414;2023-02-11T01:25:55;22.38;;;5.10;;
26965;SDS011;14522;52.068;4.414;2023-02-11T01:28:25;17.38;;;4.00;;
26965;SDS011;14522;52.068;4.414;2023-02-11T01:30:52;15.90;;;4.15;;
26965;SDS011;14522;52.068;4.414;2023-02-11T01:33:19;20.85;;;4.60;;
26965;SDS011;14522;52.068;4.414;2023-02-11T01:35:46;12.82;;;3.67;;
26965;SDS011;14522;52.068;4.414;2023-02-11T01:38:14;14.93;;;4.38;;
26965;SDS011;14522;52.068;4.414;2023-02-11T01:40:45;19.20;;;4.82;;
26965;SDS011;14522;52.068;4.414;2023-02-11T01:43:11;16.63;;;4.28;;
26965;SDS011;14522;52.068;4.414;2023-02-11T01:48:12;17.13;;;4.85;;
26965;SDS011;14522;52.068;4.414;2023-02-11T01:50:40;18.30;;;4.32;;
26965;SDS011;14522;52.068;4.414;2023-02-11T01:53:08;22.88;;;4.45;;
26965;SDS011;14522;52.068;4.414;2023-02-11T01:55:54;20.42;;;4.80;;
26965;SDS011;14522;52.068;4.414;2023-02-11T01:58:40;15.15;;;5.28;;
26965;SDS011;14522;52.068;4.414;2023-02-11T02:01:07;20.52;;;5.50;;
26965;SDS011;14522;52.068;4.414;2023-02-11T02:03:36;16.20;;;4.95;;
26965;SDS011;14522;52.068;4.414;2023-02-11T02:06:06;16.00;;;4.72;;
26965;SDS011;14522;52.068;4.414;2023-02-11T02:08:41;17.60;;;5.53;;
26965;SDS011;14522;52.068;4.414;2023-02-11T02:11:09;19.77;;;5.88;;
26965;SDS011;14522;52.068;4.414;2023-02-11T02:13:35;19.15;;;5.47;;
26965;SDS011;14522;52.068;4.414;2023-02-11T02:16:06;27.65;;;5.97;;
26965;SDS011;14522;52.068;4.414;2023-02-11T02:24:02;17.05;;;5.70;;
26965;SDS011;14522;52.068;4.414;2023-02-11T02:26:41;18.13;;;6.00;;
26965;SDS011;14522;52.068;4.414;2023-02-11T02:29:25;18.20;;;6.35;;
26965;SDS011;14522;52.068;4.414;2023-02-11T02:34:50;20.48;;;5.60;;
26965;SDS011;14522;52.068;4.414;2023-02-11T02:39:45;21.90;;;5.72;;
26965;SDS011;14522;52.068;4.414;2023-02-11T02:42:13;21.15;;;6.05;;
26965;SDS011;14522;52.068;4.414;2023-02-11T02:44:46;22.35;;;6.65;;
26965;SDS011;14522;52.068;4.414;2023-02-11T02:47:12;20.70;;;6.50;;
26965;SDS011;14522;52.068;4.414;2023-02-11T02:49:39;19.25;;;6.35;;
26965;SDS011;14522;52.068;4.414;2023-02-11T02:52:12;15.80;;;5.85;;
26965;SDS011;14522;52.068;4.414;2023-02-11T03:02:32;20.73;;;7.38;;
26965;SDS011;14522;52.068;4.414;2023-02-11T03:05:05;19.63;;;6.88;;
26965;SDS011;14522;52.068;4.414;2023-02-11T03:07:51;21.33;;;6.07;;
26965;SDS011;14522;52.068;4.414;2023-02-11T03:10:28;26.90;;;7.50;;
26965;SDS011;14522;52.068;4.414;2023-02-11T03:12:55;22.85;;;7.32;;
26965;SDS011;14522;52.068;4.414;2023-02-11T03:15:22;19.85;;;6.43;;
26965;SDS011;14522;52.068;4.414;2023-02-11T03:17:50;21.85;;;6.88;;
26965;SDS011;14522;52.068;4.414;2023-02-11T03:20:17;30.75;;;7.47;;
26965;SDS011;14522;52.068;4.414;2023-02-11T03:22:47;26.02;;;6.95;;
26965;SDS011;14522;52.068;4.414;2023-02-11T03:25:14;21.80;;;7.50;;
26965;SDS011;14522;52.068;4.414;2023-02-11T03:33:36;19.48;;;6.82;;
26965;SDS011;14522;52.068;4.414;2023-02-11T03:35:38;17.50;;;6.53;;
26965;SDS011;14522;52.068;4.414;2023-02-11T03:38:18;15.82;;;6.95;;
26965;SDS011;14522;52.068;4.414;2023-02-11T03:40:45;18.65;;;8.15;;
26965;SDS011;14522;52.068;4.414;2023-02-11T03:43:14;22.52;;;8.40;;
26965;SDS011;14522;52.068;4.414;2023-02-11T03:45:45;27.80;;;9.38;;
26965;SDS011;14522;52.068;4.414;2023-02-11T03:48:15;28.60;;;8.45;;
26965;SDS011;14522;52.068;4.414;2023-02-11T03:50:43;22.60;;;9.13;;
26965;SDS011;14522;52.068;4.414;2023-02-11T03:53:10;28.00;;;8.35;;
26965;SDS011;14522;52.068;4.414;2023-02-11T03:55:38;29.70;;;9.60;;
26965;SDS011;14522;52.068;4.414;2023-02-11T03:58:05;21.05;;;9.00;;
26965;SDS011;14522;52.068;4.414;2023-02-11T04:00:33;26.02;;;10.05;;
26965;SDS011;14522;52.068;4.414;2023-02-11T04:02:59;22.48;;;8.98;;
26965;SDS011;14522;52.068;4.414;2023-02-11T04:05:26;22.02;;;9.02;;
26965;SDS011;14522;52.068;4.414;2023-02-11T04:07:52;24.05;;;9.57;;
26965;SDS011;14522;52.068;4.414;2023-02-11T04:10:19;26.13;;;9.73;;
26965;SDS011;14522;52.068;4.414;2023-02-11T04:12:45;18.20;;;8.90;;
26965;SDS011;14522;52.068;4.414;2023-02-11T04:15:12;16.40;;;6.75;;
26965;SDS011;14522;52.068;4.414;2023-02-11T04:17:38;25.38;;;9.60;;
26965;SDS011;14522;52.068;4.414;2023-02-11T04:20:05;32.53;;;10.23;;
26965;SDS011;14522;52.068;4.414;2023-02-11T04:22:31;18.23;;;7.78;;
26965;SDS011;14522;52.068;4.414;2023-02-11T04:24:58;27.50;;;10.13;;
26965;SDS011;14522;52.068;4.414;2023-02-11T04:27:24;25.45;;;10.30;;
26965;SDS011;14522;52.068;4.414;2023-02-11T04:29:50;24.63;;;9.38;;
26965;SDS011;14522;52.068;4.414;2023-02-11T04:32:17;21.98;;;10.05;;
26965;SDS011;14522;52.068;4.414;2023-02-11T04:34:43;26.38;;;11.15;;
26965;SDS011;14522;52.068;4.414;2023-02-11T04:37:10;21.40;;;10.50;;
26965;SDS011;14522;52.068;4.414;2023-02-11T04:39:36;25.55;;;9.60;;
26965;SDS011;14522;52.068;4.414;2023-02-11T04:42:03;22.05;;;10.48;;
26965;SDS011;14522;52.068;4.414;2023-02-11T04:44:29;16.13;;;7.28;;
26965;SDS011;14522;52.068;4.414;2023-02-11T04:46:55;22.85;;;10.75;;
26965;SDS011;14522;52.068;4.414;2023-02-11T04:49:22;27.52;;;10.93;;
26965;SDS011;14522;52.068;4.414;2023-02-11T04:51:48;27.15;;;10.35;;
26965;SDS011;14522;52.068;4.414;2023-02-11T04:54:15;22.98;;;10.15;;
26965;SDS011;14522;52.068;4.414;2023-02-11T04:56:41;24.23;;;10.55;;
26965;SDS011;14522;52.068;4.414;2023-02-11T04:59:08;26.90;;;10.18;;
26965;SDS011;14522;52.068;4.414;2023-02-11T05:01:34;22.00;;;10.55;;
26965;SDS011;14522;52.068;4.414;2023-02-11T05:04:01;26.13;;;10.73;;
26965;SDS011;14522;52.068;4.414;2023-02-11T05:06:27;29.10;;;11.73;;
26965;SDS011;14522;52.068;4.414;2023-02-11T05:08:54;27.88;;;11.88;;
26965;SDS011;14522;52.068;4.414;2023-02-11T05:11:21;26.83;;;11.02;;
26965;SDS011;14522;52.068;4.414;2023-02-11T05:13:48;28.25;;;11.75;;
26965;SDS011;14522;52.068;4.414;2023-02-11T05:16:15;30.42;;;12.00;;
26965;SDS011;14522;52.068;4.414;2023-02-11T05:18:42;27.60;;;11.82;;
26965;SDS011;14522;52.068;4.414;2023-02-11T05:21:10;23.05;;;11.95;;
26965;SDS011;14522;52.068;4.414;2023-02-11T05:23:37;25.98;;;10.50;;
26965;SDS011;14522;52.068;4.414;2023-02-11T05:26:03;26.58;;;11.65;;
26965;SDS011;14522;52.068;4.414;2023-02-11T05:28:30;30.02;;;12.20;;
26965;SDS011;14522;52.068;4.414;2023-02-11T05:30:56;24.98;;;11.88;;
26965;SDS011;14522;52.068;4.414;2023-02-11T05:33:23;33.85;;;12.35;;
26965;SDS011;14522;52.068;4.414;2023-02-11T05:35:49;18.70;;;8.73;;
26965;SDS011;14522;52.068;4.414;2023-02-11T05:38:16;25.67;;;11.75;;
26965;SDS011;14522;52.068;4.414;2023-02-11T05:40:43;27.08;;;11.70;;
26965;SDS011;14522;52.068;4.414;2023-02-11T05:43:09;27.98;;;11.88;;
26965;SDS011;14522;52.068;4.414;2023-02-11T05:45:35;22.63;;;12.13;;
26965;SDS011;14522;52.068;4.414;2023-02-11T05:48:02;28.20;;;11.85;;
26965;SDS011;14522;52.068;4.414;2023-02-11T05:50:28;17.65;;;10.82;;
26965;SDS011;14522;52.068;4.414;2023-02-11T05:52:54;26.52;;;12.35;;
26965;SDS011;14522;52.068;4.414;2023-02-11T05:55:21;31.67;;;13.32;;
26965;SDS011;14522;52.068;4.414;2023-02-11T05:57:47;25.17;;;12.98;;
26965;SDS011;14522;52.068;4.414;2023-02-11T06:00:14;29.83;;;12.80;;
26965;SDS011;14522;52.068;4.414;2023-02-11T06:02:40;25.05;;;12.50;;
26965;SDS011;14522;52.068;4.414;2023-02-11T06:05:07;23.60;;;10.70;;
26965;SDS011;14522;52.068;4.414;2023-02-11T06:07:34;27.85;;;12.98;;
26965;SDS011;14522;52.068;4.414;2023-02-11T06:10:00;29.95;;;13.20;;
26965;SDS011;14522;52.068;4.414;2023-02-11T06:12:26;22.92;;;11.27;;
26965;SDS011;14522;52.068;4.414;2023-02-11T06:14:53;22.27;;;11.27;;
26965;SDS011;14522;52.068;4.414;2023-02-11T06:17:19;26.77;;;13.18;;
26965;SDS011;14522;52.068;4.414;2023-02-11T06:19:45;20.75;;;10.82;;
26965;SDS011;14522;52.068;4.414;2023-02-11T06:22:12;24.60;;;12.50;;
26965;SDS011;14522;52.068;4.414;2023-02-11T06:24:38;28.00;;;13.05;;
26965;SDS011;14522;52.068;4.414;2023-02-11T06:27:25;20.38;;;9.82;;
26965;SDS011;14522;52.068;4.414;2023-02-11T06:29:51;31.55;;;12.10;;
26965;SDS011;14522;52.068;4.414;2023-02-11T06:32:18;18.63;;;11.27;;
26965;SDS011;14522;52.068;4.414;2023-02-11T06:35:04;19.88;;;10.48;;
26965;SDS011;14522;52.068;4.414;2023-02-11T06:37:32;24.40;;;12.13;;
26965;SDS011;14522;52.068;4.414;2023-02-11T06:39:58;24.10;;;12.13;;
26965;SDS011;14522;52.068;4.414;2023-02-11T06:42:25;24.40;;;13.40;;
26965;SDS011;14522;52.068;4.414;2023-02-11T06:44:51;18.70;;;8.40;;
26965;SDS011;14522;52.068;4.414;2023-02-11T06:47:17;23.42;;;11.13;;
26965;SDS011;14522;52.068;4.414;2023-02-11T06:49:44;24.25;;;12.95;;
26965;SDS011;14522;52.068;4.414;2023-02-11T06:52:11;24.45;;;13.10;;
26965;SDS011;14522;52.068;4.414;2023-02-11T06:54:37;24.48;;;11.43;;
26965;SDS011;14522;52.068;4.414;2023-02-11T06:57:03;15.98;;;8.68;;
26965;SDS011;14522;52.068;4.414;2023-02-11T06:59:30;24.77;;;12.40;;
26965;SDS011;14522;52.068;4.414;2023-02-11T07:01:56;24.17;;;12.13;;
26965;SDS011;14522;52.068;4.414;2023-02-11T07:04:23;16.88;;;9.30;;
26965;SDS011;14522;52.068;4.414;2023-02-11T07:06:49;27.58;;;12.30;;
26965;SDS011;14522;52.068;4.414;2023-02-11T07:09:16;26.25;;;11.50;;
26965;SDS011;14522;52.068;4.414;2023-02-11T07:11:42;24.95;;;12.27;;
26965;SDS011;14522;52.068;4.414;2023-02-11T07:14:08;24.58;;;11.68;;
26965;SDS011;14522;52.068;4.414;2023-02-11T07:16:35;21.52;;;11.90;;
26965;SDS011;14522;52.068;4.414;2023-02-11T07:19:02;20.55;;;11.75;;
26965;SDS011;14522;52.068;4.414;2023-02-11T07:21:28;24.75;;;11.85;;
26965;SDS011;14522;52.068;4.414;2023-02-11T07:23:54;14.32;;;6.30;;
26965;SDS011;14522;52.068;4.414;2023-02-11T07:26:22;18.05;;;10.02;;
26965;SDS011;14522;52.068;4.414;2023-02-11T07:28:49;16.58;;;7.68;;
26965;SDS011;14522;52.068;4.414;2023-02-11T07:31:17;22.33;;;11.93;;
26965;SDS011;14522;52.068;4.414;2023-02-11T07:33:44;23.05;;;11.85;;
26965;SDS011;14522;52.068;4.414;2023-02-11T07:36:14;18.75;;;12.07;;
26965;SDS011;14522;52.068;4.414;2023-02-11T07:38:41;20.73;;;11.68;;
26965;SDS011;14522;52.068;4.414;2023-02-11T07:41:09;19.70;;;9.25;;
26965;SDS011;14522;52.068;4.414;2023-02-11T07:43:36;23.73;;;11.98;;
26965;SDS011;14522;52.068;4.414;2023-02-11T07:46:03;22.77;;;11.05;;
26965;SDS011;14522;52.068;4.414;2023-02-11T07:48:30;26.05;;;10.95;;
26965;SDS011;14522;52.068;4.414;2023-02-11T07:51:03;16.35;;;8.82;;
26965;SDS011;14522;52.068;4.414;2023-02-11T07:53:30;17.17;;;8.27;;
26965;SDS011;14522;52.068;4.414;2023-02-11T07:55:56;21.15;;;10.57;;
26965;SDS011;14522;52.068;4.414;2023-02-11T07:58:23;18.38;;;10.68;;
26965;SDS011;14522;52.068;4.414;2023-02-11T08:00:49;16.35;;;7.43;;
26965;SDS011;14522;52.068;4.414;2023-02-11T08:03:15;20.92;;;11.00;;
26965;SDS011;14522;52.068;4.414;2023-02-11T08:05:42;18.88;;;9.48;;
26965;SDS011;14522;52.068;4.414;2023-02-11T08:08:09;18.30;;;9.07;;
26965;SDS011;14522;52.068;4.414;2023-02-11T08:10:35;22.27;;;10.75;;
26965;SDS011;14522;52.068;4.414;2023-02-11T08:13:02;8.90;;;5.25;;
26965;SDS011;14522;52.068;4.414;2023-02-11T08:15:28;19.98;;;9.93;;
26965;SDS011;14522;52.068;4.414;2023-02-11T08:17:54;22.90;;;11.02;;
26965;SDS011;14522;52.068;4.414;2023-02-11T08:20:21;19.10;;;9.00;;
26965;SDS011;14522;52.068;4.414;2023-02-11T08:22:47;12.35;;;6.20;;
26965;SDS011;14522;52.068;4.414;2023-02-11T08:25:14;9.02;;;3.90;;
26965;SDS011;14522;52.068;4.414;2023-02-11T08:27:40;18.27;;;7.95;;
26965;SDS011;14522;52.068;4.414;2023-02-11T08:30:06;17.98;;;9.02;;
26965;SDS011;14522;52.068;4.414;2023-02-11T08:32:33;15.35;;;8.43;;
26965;SDS011;14522;52.068;4.414;2023-02-11T08:35:00;14.02;;;7.75;;
26965;SDS011;14522;52.068;4.414;2023-02-11T08:37:26;19.80;;;9.02;;
26965;SDS011;14522;52.068;4.414;2023-02-11T08:39:52;11.55;;;6.20;;
26965;SDS011;14522;52.068;4.414;2023-02-11T08:42:19;17.60;;;8.68;;
26965;SDS011;14522;52.068;4.414;2023-02-11T08:44:45;15.45;;;7.95;;
26965;SDS011;14522;52.068;4.414;2023-02-11T08:47:11;14.43;;;7.15;;
26965;SDS011;14522;52.068;4.414;2023-02-11T08:49:38;18.15;;;9.02;;
26965;SDS011;14522;52.068;4.414;2023-02-11T08:52:07;14.65;;;6.30;;
26965;SDS011;14522;52.068;4.414;2023-02-11T08:54:33;8.55;;;5.40;;
26965;SDS011;14522;52.068;4.414;2023-02-11T08:57:01;20.48;;;8.05;;
26965;SDS011;14522;52.068;4.414;2023-02-11T08:59:27;15.60;;;7.78;;
26965;SDS011;14522;52.068;4.414;2023-02-11T09:01:54;13.32;;;8.13;;
26965;SDS011;14522;52.068;4.414;2023-02-11T09:04:21;11.73;;;6.90;;
26965;SDS011;14522;52.068;4.414;2023-02-11T09:06:47;14.48;;;6.72;;
26965;SDS011;14522;52.068;4.414;2023-02-11T09:09:14;5.90;;;3.40;;
26965;SDS011;14522;52.068;4.414;2023-02-11T09:11:41;17.27;;;7.18;;
26965;SDS011;14522;52.068;4.414;2023-02-11T09:14:11;9.25;;;4.88;;
26965;SDS011;14522;52.068;4.414;2023-02-11T09:16:40;10.98;;;5.00;;
26965;SDS011;14522;52.068;4.414;2023-02-11T09:19:08;15.07;;;7.13;;
26965;SDS011;14522;52.068;4.414;2023-02-11T09:21:34;11.52;;;5.03;;
26965;SDS011;14522;52.068;4.414;2023-02-11T09:24:01;7.90;;;5.30;;
26965;SDS011;14522;52.068;4.414;2023-02-11T09:26:28;8.48;;;4.45;;
26965;SDS011;14522;52.068;4.414;2023-02-11T09:28:55;11.15;;;4.50;;
26965;SDS011;14522;52.068;4.414;2023-02-11T09:31:23;14.98;;;6.15;;
26965;SDS011;14522;52.068;4.414;2023-02-11T09:33:52;12.55;;;5.38;;
26965;SDS011;14522;52.068;4.414;2023-02-11T09:36:20;10.73;;;4.88;;
26965;SDS011;14522;52.068;4.414;2023-02-11T09:38:46;17.95;;;6.05;;
26965;SDS011;14522;52.068;4.414;2023-02-11T09:44:01;6.28;;;4.22;;
26965;SDS011;14522;52.068;4.414;2023-02-11T09:46:31;13.80;;;5.63;;
26965;SDS011;14522;52.068;4.414;2023-02-11T09:48:59;9.48;;;4.50;;
26965;SDS011;14522;52.068;4.414;2023-02-11T09:54:00;7.88;;;3.78;;
26965;SDS011;14522;52.068;4.414;2023-02-11T09:56:30;6.00;;;2.53;;
26965;SDS011;14522;52.068;4.414;2023-02-11T09:58:57;10.00;;;5.65;;
26965;SDS011;14522;52.068;4.414;2023-02-11T10:01:38;5.47;;;3.13;;
26965;SDS011;14522;52.068;4.414;2023-02-11T10:04:27;9.30;;;5.10;;
26965;SDS011;14522;52.068;4.414;2023-02-11T10:22:18;12.75;;;5.28;;
26965;SDS011;14522;52.068;4.414;2023-02-11T10:24:55;6.53;;;3.03;;
26965;SDS011;14522;52.068;4.414;2023-02-11T10:27:31;7.40;;;4.22;;
26965;SDS011;14522;52.068;4.414;2023-02-11T10:30:03;8.35;;;3.65;;
26965;SDS011;14522;52.068;4.414;2023-02-11T10:32:38;12.77;;;6.93;;
26965;SDS011;14522;52.068;4.414;2023-02-11T10:35:12;8.85;;;5.22;;
26965;SDS011;14522;52.068;4.414;2023-02-11T10:37:40;8.50;;;4.65;;
26965;SDS011;14522;52.068;4.414;2023-02-11T10:40:16;5.60;;;2.60;;
26965;SDS011;14522;52.068;4.414;2023-02-11T10:42:45;7.53;;;4.20;;
26965;SDS011;14522;52.068;4.414;2023-02-11T10:47:51;8.35;;;4.05;;
26965;SDS011;14522;52.068;4.414;2023-02-11T10:50:28;4.93;;;3.08;;
26965;SDS011;14522;52.068;4.414;2023-02-11T10:53:09;9.65;;;5.55;;
26965;SDS011;14522;52.068;4.414;2023-02-11T10:55:36;12.60;;;4.30;;
26965;SDS011;14522;52.068;4.414;2023-02-11T10:58:03;10.88;;;5.70;;
26965;SDS011;14522;52.068;4.414;2023-02-11T11:02:58;6.10;;;3.22;;
26965;SDS011;14522;52.068;4.414;2023-02-11T11:05:29;9.25;;;5.28;;
26965;SDS011;14522;52.068;4.414;2023-02-11T11:08:01;8.60;;;5.38;;
26965;SDS011;14522;52.068;4.414;2023-02-11T11:10:30;12.23;;;6.22;;
26965;SDS011;14522;52.068;4.414;2023-02-11T11:12:59;10.05;;;4.88;;
26965;SDS011;14522;52.068;4.414;2023-02-11T11:15:27;11.02;;;6.63;;
26965;SDS011;14522;52.068;4.414;2023-02-11T11:18:11;12.60;;;6.22;;
26965;SDS011;14522;52.068;4.414;2023-02-11T11:20:54;12.18;;;5.13;;
26965;SDS011;14522;52.068;4.414;2023-02-11T11:23:23;13.82;;;6.15;;
26965;SDS011;14522;52.068;4.414;2023-02-11T11:26:03;11.88;;;6.57;;
26965;SDS011;14522;52.068;4.414;2023-02-11T11:28:32;13.35;;;6.65;;
26965;SDS011;14522;52.068;4.414;2023-02-11T11:31:02;12.43;;;6.07;;
26965;SDS011;14522;52.068;4.414;2023-02-11T11:33:30;9.00;;;5.25;;
26965;SDS011;14522;52.068;4.414;2023-02-11T11:38:27;6.65;;;3.67;;
26965;SDS011;14522;52.068;4.414;2023-02-11T11:43:39;8.77;;;5.05;;
26965;SDS011;14522;52.068;4.414;2023-02-11T11:46:21;10.63;;;5.10;;
26965;SDS011;14522;52.068;4.414;2023-02-11T11:48:48;7.53;;;4.20;;
26965;SDS011;14522;52.068;4.414;2023-02-11T11:51:15;10.38;;;5.72;;
26965;SDS011;14522;52.068;4.414;2023-02-11T11:56:27;5.72;;;3.85;;
26965;SDS011;14522;52.068;4.414;2023-02-11T11:58:55;9.88;;;5.78;;
26965;SDS011;14522;52.068;4.414;2023-02-11T12:15:10;13.52;;;4.95;;
26965;SDS011;14522;52.068;4.414;2023-02-11T12:17:50;8.25;;;3.67;;
26965;SDS011;14522;52.068;4.414;2023-02-11T12:22:52;6.32;;;4.22;;
26965;SDS011;14522;52.068;4.414;2023-02-11T12:25:29;12.40;;;6.80;;
26965;SDS011;14522;52.068;4.414;2023-02-11T12:35:34;9.88;;;5.43;;
26965;SDS011;14522;52.068;4.414;2023-02-11T12:41:03;7.88;;;4.97;;
26965;SDS011;14522;52.068;4.414;2023-02-11T12:43:38;6.45;;;3.40;;
26965;SDS011;14522;52.068;4.414;2023-02-11T12:56:23;9.75;;;4.90;;
26965;SDS011;14522;52.068;4.414;2023-02-11T12:58:53;6.90;;;4.32;;
26965;SDS011;14522;52.068;4.414;2023-02-11T13:01:22;6.63;;;3.15;;
26965;SDS011;14522;52.068;4.414;2023-02-11T13:03:55;8.85;;;4.82;;
26965;SDS011;14522;52.068;4.414;2023-02-11T13:06:27;6.22;;;2.92;;
26965;SDS011;14522;52.068;4.414;2023-02-11T13:08:58;12.25;;;4.70;;
26965;SDS011;14522;52.068;4.414;2023-02-11T13:11:48;9.05;;;4.78;;
26965;SDS011;14522;52.068;4.414;2023-02-11T13:14:24;9.07;;;4.10;;
26965;SDS011;14522;52.068;4.414;2023-02-11T13:16:52;5.47;;;2.53;;
26965;SDS011;14522;52.068;4.414;2023-02-11T13:21:52;6.63;;;4.05;;
26965;SDS011;14522;52.068;4.414;2023-02-11T13:24:23;6.22;;;3.42;;
26965;SDS011;14522;52.068;4.414;2023-02-11T13:31:51;4.90;;;2.30;;
26965;SDS011;14522;52.068;4.414;2023-02-11T13:40:03;8.65;;;2.85;;
26965;SDS011;14522;52.068;4.414;2023-02-11T13:42:48;8.95;;;3.30;;
26965;SDS011;14522;52.068;4.414;2023-02-11T13:45:27;6.90;;;2.45;;
26965;SDS011;14522;52.068;4.414;2023-02-11T13:47:57;9.02;;;4.13;;
26965;SDS011;14522;52.068;4.414;2023-02-11T13:50:25;6.10;;;2.25;;
26965;SDS011;14522;52.068;4.414;2023-02-11T13:52:59;4.93;;;3.00;;
26965;SDS011;14522;52.068;4.414;2023-02-11T13:55:26;10.07;;;3.65;;
26965;SDS011;14522;52.068;4.414;2023-02-11T14:16:33;10.02;;;3.47;;
26965;SDS011;14522;52.068;4.414;2023-02-11T14:19:04;6.05;;;3.08;;
26965;SDS011;14522;52.068;4.414;2023-02-11T14:21:37;8.10;;;3.42;;
26965;SDS011;14522;52.068;4.414;2023-02-11T14:26:53;9.38;;;3.38;;
26965;SDS011;14522;52.068;4.414;2023-02-11T14:31:57;6.82;;;2.72;;
26965;SDS011;14522;52.068;4.414;2023-02-11T14:38:12;3.67;;;2.28;;
26965;SDS011;14522;52.068;4.414;2023-02-11T14:40:38;8.02;;;2.35;;
26965;SDS011;14522;52.068;4.414;2023-02-11T14:43:10;6.72;;;2.90;;
26965;SDS011;14522;52.068;4.414;2023-02-11T14:45:37;10.35;;;3.65;;
26965;SDS011;14522;52.068;4.414;2023-02-11T14:48:13;10.30;;;3.13;;
26965;SDS011;14522;52.068;4.414;2023-02-11T14:50:53;4.82;;;2.10;;
26965;SDS011;14522;52.068;4.414;2023-02-11T14:53:23;5.78;;;2.35;;
26965;SDS011;14522;52.068;4.414;2023-02-11T14:55:51;7.70;;;2.85;;
26965;SDS011;14522;52.068;4.414;2023-02-11T15:01:00;9.48;;;3.10;;
26965;SDS011;14522;52.068;4.414;2023-02-11T15:03:28;6.47;;;2.60;;
26965;SDS011;14522;52.068;4.414;2023-02-11T15:05:55;4.95;;;2.88;;
26965;SDS011;14522;52.068;4.414;2023-02-11T15:08:23;5.07;;;3.00;;
26965;SDS011;14522;52.068;4.414;2023-02-11T15:10:49;6.07;;;2.53;;
26965;SDS011;14522;52.068;4.414;2023-02-11T15:13:20;7.80;;;2.85;;
26965;SDS011;14522;52.068;4.414;2023-02-11T15:15:48;6.53;;;2.63;;
26965;SDS011;14522;52.068;4.414;2023-02-11T15:18:17;2.97;;;1.70;;
26965;SDS011;14522;52.068;4.414;2023-02-11T15:20:47;6.30;;;2.70;;
26965;SDS011;14522;52.068;4.414;2023-02-11T15:23:20;4.65;;;2.40;;
26965;SDS011;14522;52.068;4.414;2023-02-11T15:25:47;4.80;;;1.77;;
26965;SDS011;14522;52.068;4.414;2023-02-11T15:28:22;4.93;;;1.70;;
26965;SDS011;14522;52.068;4.414;2023-02-11T15:33:28;7.75;;;2.45;;
26965;SDS011;14522;52.068;4.414;2023-02-11T15:35:57;5.18;;;2.25;;
26965;SDS011;14522;52.068;4.414;2023-02-11T15:38:23;5.00;;;1.17;;
26965;SDS011;14522;52.068;4.414;2023-02-11T15:40:53;3.65;;;1.42;;
26965;SDS011;14522;52.068;4.414;2023-02-11T15:43:20;6.28;;;2.80;;
26965;SDS011;14522;52.068;4.414;2023-02-11T15:45:53;3.90;;;2.13;;
26965;SDS011;14522;52.068;4.414;2023-02-11T15:48:33;4.78;;;1.80;;
26965;SDS011;14522;52.068;4.414;2023-02-11T15:51:02;4.88;;;2.45;;
26965;SDS011;14522;52.068;4.414;2023-02-11T15:53:32;9.25;;;1.70;;
26965;SDS011;14522;52.068;4.414;2023-02-11T15:56:12;10.38;;;3.30;;
26965;SDS011;14522;52.068;4.414;2023-02-11T15:58:41;7.28;;;3.10;;
26965;SDS011;14522;52.068;4.414;2023-02-11T16:01:08;6.03;;;3.20;;
26965;SDS011;14522;52.068;4.414;2023-02-11T16:03:35;5.88;;;2.30;;
26965;SDS011;14522;52.068;4.414;2023-02-11T16:06:15;5.25;;;2.58;;
26965;SDS011;14522;52.068;4.414;2023-02-11T16:08:42;5.22;;;2.40;;
26965;SDS011;14522;52.068;4.414;2023-02-11T16:11:17;11.30;;;4.47;;
26965;SDS011;14522;52.068;4.414;2023-02-11T16:13:48;8.55;;;2.75;;
26965;SDS011;14522;52.068;4.414;2023-02-11T16:16:21;3.17;;;1.42;;
26965;SDS011;14522;52.068;4.414;2023-02-11T16:19:11;1.95;;;1.08;;
26965;SDS011;14522;52.068;4.414;2023-02-11T16:21:36;5.25;;;3.13;;
26965;SDS011;14522;52.068;4.414;2023-02-11T16:24:14;8.77;;;2.33;;
26965;SDS011;14522;52.068;4.414;2023-02-11T16:26:44;6.40;;;3.40;;
26965;SDS011;14522;52.068;4.414;2023-02-11T16:29:14;6.15;;;2.42;;
26965;SDS011;14522;52.068;4.414;2023-02-11T16:31:42;4.28;;;2.17;;
26965;SDS011;14522;52.068;4.414;2023-02-11T16:34:16;4.03;;;2.13;;
26965;SDS011;14522;52.068;4.414;2023-02-11T16:36:43;9.98;;;2.83;;
26965;SDS011;14522;52.068;4.414;2023-02-11T16:39:10;7.43;;;2.97;;
26965;SDS011;14522;52.068;4.414;2023-02-11T16:41:36;6.05;;;2.42;;
26965;SDS011;14522;52.068;4.414;2023-02-11T16:44:03;4.95;;;1.95;;
26965;SDS011;14522;52.068;4.414;2023-02-11T16:46:29;6.05;;;2.65;;
26965;SDS011;14522;52.068;4.414;2023-02-11T16:48:56;8.73;;;3.15;;
26965;SDS011;14522;52.068;4.414;2023-02-11T16:51:24;5.47;;;2.80;;
26965;SDS011;14522;52.068;4.414;2023-02-11T16:53:50;4.35;;;2.50;;
26965;SDS011;14522;52.068;4.414;2023-02-11T16:56:17;10.18;;;3.13;;
26965;SDS011;14522;52.068;4.414;2023-02-11T16:58:43;4.65;;;1.50;;
26965;SDS011;14522;52.068;4.414;2023-02-11T17:01:10;6.00;;;2.92;;
26965;SDS011;14522;52.068;4.414;2023-02-11T17:03:39;8.45;;;2.83;;
26965;SDS011;14522;52.068;4.414;2023-02-11T17:06:07;8.02;;;3.22;;
26965;SDS011;14522;52.068;4.414;2023-02-11T17:08:34;13.85;;;3.15;;